createdAt,value
2024-01-20T00:01:58.123Z,99507.41
2024-01-20T00:05:00.832Z,99499.31
2024-01-20T00:08:02.517Z,99506.28
2024-01-20T00:11:04.339Z,99513.66
2024-01-20T00:14:06.094Z,99509.34
2024-01-20T00:17:13.590Z,99514.69
2024-01-20T00:20:24.794Z,99521.00
2024-01-20T00:23:26.491Z,99519.00
2024-01-20T00:29:46.350Z,99527.78
2024-01-20T00:33:10.517Z,99525.13
2024-01-20T00:36:12.454Z,99530.22
2024-01-20T00:43:16.740Z,99531.50
2024-01-20T00:46:18.189Z,99524.34
2024-01-20T00:49:19.637Z,99535.94
2024-01-20T00:56:23.968Z,99529.59
2024-01-20T00:59:25.470Z,99531.38
2024-01-20T01:02:30.188Z,99534.97
2024-01-20T01:05:31.659Z,99538.78
2024-01-20T01:08:33.112Z,99535.34
2024-01-20T01:15:38.024Z,99548.44
2024-01-20T01:22:36.592Z,99550.63
2024-01-20T01:30:15.334Z,99567.88
2024-01-20T01:37:20.048Z,99577.78
2024-01-20T01:40:24.549Z,99571.50
2024-01-20T01:47:28.982Z,99580.38
2024-01-20T01:50:30.752Z,99574.16
2024-01-20T02:09:45.471Z,99586.44
2024-01-20T02:12:47.306Z,99585.56
2024-01-20T02:16:01.753Z,99583.38
2024-01-20T02:19:03.950Z,99586.19
2024-01-20T02:26:09.187Z,99584.66
2024-01-20T02:29:35.504Z,99584.66
2024-01-20T02:36:58.846Z,99588.72
2024-01-20T02:40:00.369Z,99585.19
2024-01-20T02:46:58.836Z,99602.22
2024-01-20T02:50:00.416Z,99608.94
2024-01-20T02:53:01.897Z,99608.94
2024-01-20T02:56:03.371Z,99612.50
2024-01-20T02:59:04.804Z,99608.44
2024-01-20T03:02:06.429Z,99613.16
2024-01-20T03:05:08.211Z,99599.31
2024-01-20T03:08:09.803Z,99601.25
2024-01-20T03:11:11.249Z,99592.63
2024-01-20T03:14:12.886Z,99588.03
2024-01-20T03:17:15.469Z,99600.47
2024-01-20T03:20:16.904Z,99596.75
2024-01-20T03:23:18.326Z,99592.28
2024-01-20T03:26:19.753Z,99593.94
2024-01-20T03:29:21.151Z,99594.47
2024-01-20T03:32:22.663Z,99597.25
2024-01-20T03:35:24.104Z,99596.13
2024-01-20T03:38:25.573Z,99605.41
2024-01-20T03:41:27.008Z,99604.00
2024-01-20T03:44:28.703Z,99596.38
2024-01-20T03:47:31.153Z,99600.22
2024-01-20T03:50:33.904Z,99601.25
2024-01-20T03:53:35.442Z,99610.72
2024-01-20T03:56:44.513Z,99608.72
2024-01-20T03:59:46.037Z,99609.88
2024-01-20T04:02:47.829Z,99617.34
2024-01-20T04:05:49.324Z,99619.53
2024-01-20T04:08:50.785Z,99628.53
2024-01-20T04:11:52.771Z,99634.38
2024-01-20T04:14:54.243Z,99629.44
2024-01-20T04:17:55.860Z,99642.38
2024-01-20T04:20:57.365Z,99645.06
2024-01-20T04:23:58.876Z,99642.88
2024-01-20T04:27:00.770Z,99645.56
2024-01-20T04:30:02.257Z,99652.56
2024-01-20T04:33:04.008Z,99659.78
2024-01-20T04:36:05.766Z,99652.94
2024-01-20T04:39:07.241Z,99658.50
2024-01-20T04:42:08.767Z,99658.88
2024-01-20T04:45:12.358Z,99655.94
2024-01-20T04:48:14.009Z,99653.84
2024-01-20T04:51:15.558Z,99654.81
2024-01-20T04:54:17.076Z,99663.34
2024-01-20T04:57:18.570Z,99665.75
2024-01-20T05:00:20.050Z,99665.63
2024-01-20T05:03:21.755Z,99669.28
2024-01-20T05:06:23.707Z,99668.00
2024-01-20T05:09:25.460Z,99669.78
2024-01-20T05:12:27.320Z,99665.09
2024-01-20T05:15:28.816Z,99659.91
2024-01-20T05:18:30.393Z,99668.56
2024-01-20T05:21:32.036Z,99670.44
2024-01-20T05:24:33.696Z,99678.78
2024-01-20T05:27:35.238Z,99672.44
2024-01-20T05:30:36.725Z,99678.94
2024-01-20T05:33:38.358Z,99681.72
2024-01-20T05:36:39.853Z,99679.31
2024-01-20T05:39:41.252Z,99687.94
2024-01-20T05:42:42.665Z,99694.41
2024-01-20T05:45:44.180Z,99692.13
2024-01-20T05:48:45.764Z,99686.28
2024-01-20T05:51:47.271Z,99696.69
2024-01-20T05:54:48.708Z,99688.44
2024-01-20T05:57:50.321Z,99695.03
2024-01-20T06:00:51.784Z,99690.06
2024-01-20T06:03:53.321Z,99695.91
2024-01-20T06:06:54.779Z,99693.50
2024-01-20T06:09:56.225Z,99698.34
2024-01-20T06:12:57.639Z,99698.47
2024-01-20T06:15:59.338Z,99700.22
2024-01-20T06:19:00.852Z,99705.81
2024-01-20T06:22:02.733Z,99701.25
2024-01-20T06:25:04.796Z,99701.75
2024-01-20T06:28:07.021Z,99696.41
2024-01-20T06:31:08.503Z,99696.91
2024-01-20T06:34:10.002Z,99700.88
2024-01-20T06:37:11.626Z,99709.88
2024-01-20T06:40:13.064Z,99707.56
2024-01-20T06:43:14.672Z,99717.13
2024-01-20T06:46:16.407Z,99717.47
2024-01-20T06:49:18.116Z,99712.19
2024-01-20T06:52:19.578Z,99716.34
2024-01-20T06:55:21.529Z,99711.38
2024-01-20T06:58:23.201Z,99720.28
2024-01-20T07:01:24.931Z,99717.59
2024-01-20T07:04:26.446Z,99722.06
2024-01-20T07:07:28.178Z,99725.59
2024-01-20T07:10:29.763Z,99725.59
2024-01-20T07:13:31.202Z,99725.34
2024-01-20T07:16:35.747Z,99733.31
2024-01-20T07:19:37.343Z,99728.38
2024-01-20T07:22:38.938Z,99735.72
2024-01-20T07:25:40.640Z,99736.13
2024-01-20T07:28:42.269Z,99753.09
2024-01-20T07:31:43.842Z,99748.91
2024-01-20T07:34:45.608Z,99754.91
2024-01-20T07:37:47.536Z,99760.97
2024-01-20T07:40:49.224Z,99767.44
2024-01-20T07:43:51.091Z,99774.66
2024-01-20T07:46:52.518Z,99775.19
2024-01-20T07:49:54.129Z,99774.16
2024-01-20T07:52:55.645Z,99779.34
2024-01-20T07:55:57.231Z,99790.16
2024-01-20T07:58:59.012Z,99796.28
2024-01-20T08:14:22.066Z,99790.31
2024-01-20T08:17:23.774Z,99790.16
2024-01-20T08:20:25.380Z,99784.47
2024-01-20T08:23:26.859Z,99800.69
2024-01-20T08:26:28.336Z,99800.31
2024-01-20T08:29:29.830Z,99810.84
2024-01-20T08:32:31.294Z,99809.97
2024-01-20T08:35:32.787Z,99818.72
2024-01-20T08:38:34.244Z,99828.50
2024-01-20T08:41:36.692Z,99828.75
2024-01-20T08:44:38.153Z,99829.41
2024-01-20T08:48:18.610Z,99828.19
2024-01-20T08:51:21.042Z,99837.09
2024-01-20T09:01:46.902Z,99847.78
2024-01-20T09:04:48.410Z,99851.47
2024-01-20T09:15:56.713Z,99851.69
2024-01-20T09:23:54.493Z,99935.41
2024-01-20T09:31:05.449Z,99957.41
2024-01-20T09:34:07.324Z,99955.19
2024-01-20T09:37:11.955Z,99954.97
2024-01-20T09:40:13.759Z,99947.84
2024-01-20T09:43:15.180Z,99956.56
2024-01-20T09:46:16.747Z,99947.84
2024-01-20T09:49:18.361Z,99959.97
2024-01-20T09:52:26.469Z,99961.31
2024-01-20T09:55:29.118Z,99955.50
2024-01-20T09:58:30.590Z,99963.03
2024-01-20T10:01:32.067Z,99961.66
2024-01-20T10:04:33.928Z,99962.47
2024-01-20T10:07:35.429Z,99959.84
2024-01-20T10:10:36.881Z,99965.84
2024-01-20T10:13:38.363Z,99959.50
2024-01-20T10:16:42.701Z,99958.91
2024-01-20T10:19:44.284Z,99963.88
2024-01-20T10:22:45.780Z,99971.13
2024-01-20T10:25:47.191Z,99978.53
2024-01-20T10:28:48.725Z,99972.31
2024-01-20T10:31:50.706Z,99970.81
2024-01-20T10:34:52.327Z,99969.19
2024-01-20T10:37:53.920Z,99977.09
2024-01-20T10:40:55.417Z,99972.63
2024-01-20T10:44:01.094Z,99961.81
2024-01-20T10:47:02.677Z,99973.34
2024-01-20T10:50:07.452Z,99970.53
2024-01-20T10:53:08.905Z,99965.72
2024-01-20T10:56:10.404Z,99959.53
2024-01-20T10:59:17.958Z,99967.00
2024-01-20T11:02:19.889Z,99961.84
2024-01-20T11:05:24.433Z,99943.94
2024-01-20T11:08:26.438Z,99944.97
2024-01-20T11:11:28.588Z,99947.16
2024-01-20T11:14:31.033Z,99937.03
2024-01-20T11:17:32.508Z,99943.22
2024-01-20T11:20:34.045Z,99931.28
2024-01-20T11:23:38.699Z,99929.88
2024-01-20T11:26:40.147Z,99931.28
2024-01-20T11:29:41.617Z,99929.84
2024-01-20T11:32:43.676Z,99929.59
2024-01-20T11:35:45.224Z,99921.25
2024-01-20T11:38:46.826Z,99903.34
2024-01-20T11:41:48.304Z,99887.50
2024-01-20T11:44:49.706Z,99880.88
2024-01-20T11:47:52.120Z,99864.72
2024-01-20T11:50:53.749Z,99857.88
2024-01-20T11:53:55.197Z,99837.59
2024-01-20T11:56:57.280Z,99833.28
2024-01-20T11:59:59.172Z,99824.91
2024-01-20T12:03:00.729Z,99824.81
2024-01-20T12:06:06.491Z,99814.75
2024-01-20T12:09:08.421Z,99813.91
2024-01-20T12:12:10.120Z,99810.81
2024-01-20T12:15:14.846Z,99803.84
2024-01-20T12:18:18.168Z,99810.25
2024-01-20T12:21:19.831Z,99812.69
2024-01-20T12:24:21.358Z,99811.22
2024-01-20T12:27:24.489Z,99805.88
2024-01-20T12:30:26.138Z,99805.75
2024-01-20T12:33:27.639Z,99799.81
2024-01-20T12:36:29.193Z,99794.78
2024-01-20T12:39:30.656Z,99792.66
2024-01-20T12:42:32.961Z,99782.38
2024-01-20T12:49:37.492Z,99771.38
2024-01-20T12:52:41.937Z,99771.59
2024-01-20T12:55:44.025Z,99761.44
2024-01-20T12:58:45.489Z,99766.91
2024-01-20T13:01:47.175Z,99763.38
2024-01-20T13:04:48.740Z,99763.31
2024-01-20T13:07:50.224Z,99762.75
2024-01-20T13:10:51.683Z,99764.22
2024-01-20T13:13:53.274Z,99754.16
2024-01-20T13:16:54.733Z,99748.06
2024-01-20T13:19:56.199Z,99756.31
2024-01-20T13:22:57.664Z,99754.16
2024-01-20T13:26:00.758Z,99754.94
2024-01-20T13:29:02.154Z,99743.78
2024-01-20T13:32:03.774Z,99743.53
2024-01-20T13:35:05.533Z,99736.44
2024-01-20T13:38:07.005Z,99741.50
2024-01-20T13:41:08.520Z,99747.06
2024-01-20T13:44:10.003Z,99744.28
2024-01-20T13:47:11.438Z,99748.56
2024-01-20T13:50:12.965Z,99748.47
2024-01-20T13:53:14.472Z,99747.47
2024-01-20T13:56:16.000Z,99747.34
2024-01-20T13:59:17.467Z,99749.22
2024-01-20T14:02:18.950Z,99734.09
2024-01-20T14:05:20.368Z,99747.00
2024-01-20T14:08:23.335Z,99744.03
2024-01-20T14:11:24.999Z,99739.59
2024-01-20T14:14:26.414Z,99738.72
2024-01-20T14:17:28.778Z,99744.56
2024-01-20T14:20:30.213Z,99742.09
2024-01-20T14:23:32.883Z,99738.31
2024-01-20T14:26:34.370Z,99726.56
2024-01-20T14:29:35.783Z,99725.50
2024-01-20T14:32:37.265Z,99726.91
2024-01-20T14:35:38.702Z,99730.19
2024-01-20T14:38:40.134Z,99720.56
2024-01-20T14:41:41.584Z,99712.22
2024-01-20T14:44:43.161Z,99715.22
2024-01-20T15:07:30.939Z,99686.81
2024-01-20T15:10:33.148Z,99691.22
2024-01-20T15:13:34.567Z,99687.50
2024-01-20T15:16:36.439Z,99687.63
2024-01-20T15:19:42.249Z,99686.00
2024-01-20T15:22:47.786Z,99684.53
2024-01-20T15:25:51.303Z,99693.00
2024-01-20T15:28:54.162Z,99694.13
2024-01-20T15:31:56.868Z,99693.13
2024-01-20T15:34:59.681Z,99692.94
2024-01-20T15:38:02.522Z,99702.13
2024-01-20T15:41:04.847Z,99699.28
2024-01-20T15:44:06.360Z,99695.75
2024-01-20T15:47:09.834Z,99695.84
2024-01-20T15:50:11.279Z,99704.38
2024-01-20T15:53:12.764Z,99707.00
2024-01-20T15:56:15.075Z,99711.13
2024-01-20T15:59:17.889Z,99716.63
2024-01-20T16:02:19.351Z,99719.75
2024-01-20T16:05:21.225Z,99715.31
2024-01-20T16:08:22.639Z,99708.81
2024-01-20T16:11:24.031Z,99709.75
2024-01-20T16:14:26.941Z,99717.75
2024-01-20T16:17:28.555Z,99718.34
2024-01-20T16:20:30.065Z,99711.47
2024-01-20T16:23:31.550Z,99712.25
2024-01-20T16:26:32.974Z,99718.00
2024-01-20T16:29:34.452Z,99717.78
2024-01-20T16:32:36.329Z,99711.25
2024-01-20T16:35:37.783Z,99718.06
2024-01-20T16:38:39.221Z,99712.41
2024-01-20T16:41:40.707Z,99708.84
2024-01-20T16:44:42.122Z,99716.72
2024-01-20T16:47:43.714Z,99708.28
2024-01-20T16:50:45.207Z,99708.06
2024-01-20T16:53:47.262Z,99711.38
2024-01-20T16:56:48.658Z,99710.84
2024-01-20T16:59:51.128Z,99705.16
2024-01-20T17:02:53.091Z,99717.16
2024-01-20T17:05:54.639Z,99715.81
2024-01-20T17:08:56.123Z,99716.28
2024-01-20T17:11:57.564Z,99713.41
2024-01-20T17:14:59.060Z,99710.63
2024-01-20T17:18:00.629Z,99707.53
2024-01-20T17:21:04.328Z,99702.19
2024-01-20T17:24:05.952Z,99701.63
2024-01-20T17:27:07.482Z,99699.22
2024-01-20T17:30:09.274Z,99696.53
2024-01-20T17:33:10.802Z,99695.31
2024-01-20T17:36:12.589Z,99692.88
2024-01-20T17:39:14.199Z,99695.41
2024-01-20T17:42:15.716Z,99691.09
2024-01-20T17:45:17.754Z,99700.66
2024-01-20T17:48:21.114Z,99701.78
2024-01-20T17:51:22.648Z,99702.53
2024-01-20T17:54:28.495Z,99702.75
2024-01-20T17:57:30.452Z,99699.75
2024-01-20T18:00:31.889Z,99702.16
2024-01-20T18:03:34.197Z,99702.09
2024-01-20T18:06:35.836Z,99715.72
2024-01-20T18:09:38.683Z,99713.47
2024-01-20T18:12:42.693Z,99715.00
2024-01-20T18:15:46.143Z,99710.06
2024-01-20T18:18:47.919Z,99712.16
2024-01-20T18:21:49.641Z,99702.06
2024-01-20T18:24:52.350Z,99704.28
2024-01-20T18:27:53.895Z,99705.41
2024-01-20T18:30:55.344Z,99696.00
2024-01-20T18:33:57.036Z,99710.41
2024-01-20T18:36:58.620Z,99695.66
2024-01-20T18:40:00.112Z,99690.56
2024-01-20T18:43:01.605Z,99702.41
2024-01-20T18:46:03.219Z,99697.09
2024-01-20T18:49:04.724Z,99688.69
2024-01-20T18:52:06.467Z,99688.00
2024-01-20T18:55:08.463Z,99674.69
2024-01-20T18:58:10.337Z,99678.16
2024-01-20T19:01:12.115Z,99674.69
2024-01-20T19:04:13.673Z,99667.38
2024-01-20T19:07:15.108Z,99667.19
2024-01-20T19:10:16.745Z,99665.75
2024-01-20T19:13:18.139Z,99658.84
2024-01-20T19:16:19.723Z,99655.53
2024-01-20T19:19:21.246Z,99666.41
2024-01-20T19:22:22.744Z,99657.41
2024-01-20T19:25:24.130Z,99664.41
2024-01-20T19:28:25.579Z,99672.84
2024-01-20T19:31:26.978Z,99667.84
2024-01-20T19:34:28.640Z,99677.03
2024-01-20T19:37:31.060Z,99674.94
2024-01-20T19:40:32.489Z,99677.25
2024-01-20T19:43:36.231Z,99670.84
2024-01-20T19:46:39.728Z,99672.94
2024-01-20T19:49:41.471Z,99676.25
2024-01-20T19:52:43.190Z,99667.84
2024-01-20T19:55:44.925Z,99672.38
2024-01-20T19:58:48.290Z,99674.03
2024-01-20T20:01:49.809Z,99676.13
2024-01-20T20:04:51.414Z,99683.09
2024-01-20T20:07:52.870Z,99670.81
2024-01-20T20:10:54.863Z,99668.56
2024-01-20T20:13:56.536Z,99670.69
2024-01-20T20:16:57.941Z,99666.28
2024-01-20T20:19:59.450Z,99662.50
2024-01-20T20:23:01.330Z,99665.69
2024-01-20T20:26:02.907Z,99655.50
2024-01-20T20:29:04.470Z,99656.50
2024-01-20T20:32:06.077Z,99654.13
2024-01-20T20:35:07.665Z,99655.81
2024-01-20T20:38:10.981Z,99652.91
2024-01-20T20:41:12.879Z,99646.03
2024-01-20T20:44:14.525Z,99639.16
2024-01-20T20:47:16.001Z,99639.94
2024-01-20T20:50:18.825Z,99637.94
2024-01-20T20:53:20.228Z,99630.25
2024-01-20T20:56:21.706Z,99629.13
2024-01-20T20:59:23.189Z,99626.72
2024-01-20T21:02:24.878Z,99619.28
2024-01-20T21:05:26.329Z,99621.94
2024-01-20T21:08:27.814Z,99611.84
2024-01-20T21:11:29.617Z,99618.63
2024-01-20T21:14:31.121Z,99607.00
2024-01-20T21:17:33.926Z,99604.41
2024-01-20T21:20:35.421Z,99596.78
2024-01-20T21:23:36.824Z,99598.09
2024-01-20T21:26:38.877Z,99603.31
2024-01-20T21:29:40.483Z,99601.69
2024-01-20T21:32:42.951Z,99595.69
2024-01-20T21:35:44.727Z,99596.06
2024-01-20T21:38:46.823Z,99609.06
2024-01-20T21:41:48.449Z,99589.91
2024-01-20T21:44:49.914Z,99581.31
2024-01-20T21:47:51.435Z,99578.75
2024-01-20T21:50:55.590Z,99581.31
2024-01-20T21:53:57.214Z,99577.69
2024-01-20T21:56:58.919Z,99587.44
2024-01-20T22:00:00.502Z,99587.69
2024-01-20T22:03:02.047Z,99608.81
2024-01-20T22:06:03.740Z,99611.66
2024-01-20T22:09:06.272Z,99610.25
2024-01-20T22:12:07.984Z,99621.09
2024-01-20T22:15:10.094Z,99616.69
2024-01-20T22:18:11.766Z,99623.50
2024-01-20T22:21:13.388Z,99619.44
2024-01-20T22:24:14.890Z,99615.84
2024-01-20T22:27:16.455Z,99602.41
2024-01-20T22:30:17.954Z,99596.81
2024-01-20T22:33:19.480Z,99596.88
2024-01-20T22:36:21.042Z,99602.75
2024-01-20T22:39:22.547Z,99594.63
2024-01-20T22:42:24.043Z,99582.84
2024-01-20T22:45:26.150Z,99578.22
2024-01-20T22:48:33.251Z,99576.41
2024-01-20T22:51:34.809Z,99568.97
2024-01-20T22:54:36.272Z,99576.97
2024-01-20T22:57:38.104Z,99579.06
2024-01-20T23:00:40.373Z,99573.09
2024-01-20T23:03:42.133Z,99572.41
2024-01-20T23:06:43.731Z,99569.03
2024-01-20T23:09:45.467Z,99566.03
2024-01-20T23:12:47.604Z,99572.59
2024-01-20T23:15:49.155Z,99573.03
2024-01-20T23:18:50.688Z,99576.25
2024-01-20T23:21:52.179Z,99584.75
2024-01-20T23:24:53.752Z,99579.91
2024-01-20T23:27:55.401Z,99580.13
2024-01-20T23:30:56.880Z,99590.50
2024-01-20T23:33:58.483Z,99589.72
2024-01-20T23:37:00.208Z,99586.53
2024-01-20T23:40:02.923Z,99590.75
2024-01-20T23:43:04.482Z,99590.50
2024-01-20T23:46:06.342Z,99589.81
2024-01-20T23:49:07.788Z,99585.78
2024-01-20T23:52:09.173Z,99571.06
2024-01-20T23:55:10.569Z,99572.47
2024-01-20T23:58:12.089Z,99565.09
